sensor_id;sensor_type;location;lat;lon;timestamp;P1;durP1;ratioP1;P2;durP2;ratioP2
67344;SDS011;54230;52.402;6.276;2024-01-30T00:00:00;22.6;;;12.5;;
67344;SDS011;54230;52.402;6.276;2024-01-30T00:05:00;20.8;;;12.1;;
67344;SDS011;54230;52.402;6.276;2024-01-30T00:10:00;21.1;;;12.8;;
67344;SDS011;54230;52.402;6.276;2024-01-30T00:15:00;20.9;;;11.9;;
67344;SDS011;54230;52.402;6.276;2024-01-30T00:20:00;23.2;;;11.9;;
67344;SDS011;54230;52.402;6.276;2024-01-30T00:25:00;21.0;;;12.6;;
67344;SDS011;54230;52.402;6.276;2024-01-30T00:30:00;22.6;;;12.6;;
67344;SDS011;54230;52.402;6.276;2024-01-30T00:35:00;20.8;;;12.2;;
67344;SDS011;54230;52.402;6.276;2024-01-30T00:40:00;21.5;;;12.4;;
67344;SDS011;54230;52.402;6.276;2024-01-30T00:45:00;22.2;;;12.0;;
67344;SDS011;54230;52.402;6.276;2024-01-30T00:50:00;20.6;;;12.4;;
67344;SDS011;54230;52.402;6.276;2024-01-30T00:55:00;21.0;;;12.1;;
67344;SDS011;54230;52.402;6.276;2024-01-30T01:00:00;22.0;;;12.5;;
67344;SDS011;54230;52.402;6.276;2024-01-30T01:05:00;23.4;;;12.7;;
67344;SDS011;54230;52.402;6.276;2024-01-30T01:10:00;20.9;;;12.1;;
67344;SDS011;54230;52.402;6.276;2024-01-30T01:15:00;20.3;;;11.8;;
67344;SDS011;54230;52.402;6.276;2024-01-30T01:20:00;18.5;;;11.4;;
67344;SDS011;54230;52.402;6.276;2024-01-30T01:25:00;20.8;;;12.1;;
67344;SDS011;54230;52.402;6.276;2024-01-30T01:30:00;25.0;;;11.9;;
67344;SDS011;54230;52.402;6.276;2024-01-30T01:35:00;21.9;;;12.4;;
67344;SDS011;54230;52.402;6.276;2024-01-30T01:40:00;19.8;;;12.0;;
67344;SDS011;54230;52.402;6.276;2024-01-30T01:45:00;22.9;;;11.9;;
67344;SDS011;54230;52.402;6.276;2024-01-30T01:50:00;19.2;;;12.0;;
67344;SDS011;54230;52.402;6.276;2024-01-30T01:55:00;19.8;;;11.5;;
67344;SDS011;54230;52.402;6.276;2024-01-30T02:00:00;20.0;;;11.9;;
67344;SDS011;54230;52.402;6.276;2024-01-30T02:05:00;21.5;;;11.7;;
67344;SDS011;54230;52.402;6.276;2024-01-30T02:10:00;19.6;;;11.4;;
67344;SDS011;54230;52.402;6.276;2024-01-30T02:15:00;22.5;;;12.0;;
67344;SDS011;54230;52.402;6.276;2024-01-30T02:20:00;20.0;;;11.5;;
67344;SDS011;54230;52.402;6.276;2024-01-30T02:25:00;22.1;;;11.9;;
67344;SDS011;54230;52.402;6.276;2024-01-30T02:30:00;18.6;;;11.3;;
67344;SDS011;54230;52.402;6.276;2024-01-30T02:35:00;23.6;;;12.2;;
67344;SDS011;54230;52.402;6.276;2024-01-30T02:40:00;20.6;;;12.4;;
67344;SDS011;54230;52.402;6.276;2024-01-30T02:45:00;21.8;;;11.6;;
67344;SDS011;54230;52.402;6.276;2024-01-30T02:50:00;20.2;;;12.3;;
67344;SDS011;54230;52.402;6.276;2024-01-30T02:55:00;22.7;;;12.4;;
67344;SDS011;54230;52.402;6.276;2024-01-30T03:00:00;20.5;;;11.9;;
67344;SDS011;54230;52.402;6.276;2024-01-30T03:05:00;18.7;;;11.2;;
67344;SDS011;54230;52.402;6.276;2024-01-30T03:10:00;19.2;;;11.7;;
67344;SDS011;54230;52.402;6.276;2024-01-30T03:15:00;19.7;;;11.5;;
67344;SDS011;54230;52.402;6.276;2024-01-30T03:20:00;20.7;;;11.8;;
67344;SDS011;54230;52.402;6.276;2024-01-30T03:25:00;19.2;;;11.4;;
67344;SDS011;54230;52.402;6.276;2024-01-30T03:30:00;20.4;;;12.0;;
67344;SDS011;54230;52.402;6.276;2024-01-30T03:35:00;21.5;;;11.9;;
67344;SDS011;54230;52.402;6.276;2024-01-30T03:40:00;18.7;;;11.4;;
67344;SDS011;54230;52.402;6.276;2024-01-30T03:45:00;20.2;;;11.9;;
67344;SDS011;54230;52.402;6.276;2024-01-30T03:50:00;22.1;;;11.6;;
67344;SDS011;54230;52.402;6.276;2024-01-30T03:55:00;19.1;;;11.5;;
67344;SDS011;54230;52.402;6.276;2024-01-30T04:00:00;20.4;;;11.1;;
67344;SDS011;54230;52.402;6.276;2024-01-30T04:05:00;20.7;;;11.4;;
67344;SDS011;54230;52.402;6.276;2024-01-30T04:10:00;19.9;;;11.6;;
67344;SDS011;54230;52.402;6.276;2024-01-30T04:15:00;18.0;;;11.2;;
67344;SDS011;54230;52.402;6.276;2024-01-30T04:20:00;18.6;;;11.2;;
67344;SDS011;54230;52.402;6.276;2024-01-30T04:25:00;19.6;;;10.9;;
67344;SDS011;54230;52.402;6.276;2024-01-30T04:30:00;19.7;;;11.7;;
67344;SDS011;54230;52.402;6.276;2024-01-30T04:35:00;20.5;;;11.4;;
67344;SDS011;54230;52.402;6.276;2024-01-30T04:40:00;20.0;;;11.4;;
67344;SDS011;54230;52.402;6.276;2024-01-30T04:45:00;20.6;;;11.5;;
67344;SDS011;54230;52.402;6.276;2024-01-30T04:50:00;17.7;;;11.1;;
67344;SDS011;54230;52.402;6.276;2024-01-30T04:55:00;19.4;;;10.8;;
67344;SDS011;54230;52.402;6.276;2024-01-30T05:00:00;19.2;;;10.9;;
67344;SDS011;54230;52.402;6.276;2024-01-30T05:05:00;18.0;;;10.2;;
67344;SDS011;54230;52.402;6.276;2024-01-30T05:10:00;18.5;;;10.6;;
67344;SDS011;54230;52.402;6.276;2024-01-30T05:15:00;19.6;;;10.5;;
67344;SDS011;54230;52.402;6.276;2024-01-30T05:20:00;19.9;;;11.0;;
67344;SDS011;54230;52.402;6.276;2024-01-30T05:25:00;22.0;;;10.9;;
67344;SDS011;54230;52.402;6.276;2024-01-30T05:30:00;19.8;;;10.4;;
67344;SDS011;54230;52.402;6.276;2024-01-30T05:35:00;19.1;;;10.7;;
67344;SDS011;54230;52.402;6.276;2024-01-30T05:40:00;17.8;;;10.6;;
67344;SDS011;54230;52.402;6.276;2024-01-30T05:45:00;18.3;;;10.2;;
67344;SDS011;54230;52.402;6.276;2024-01-30T05:50:00;20.6;;;11.1;;
67344;SDS011;54230;52.402;6.276;2024-01-30T05:55:00;17.7;;;10.5;;
67344;SDS011;54230;52.402;6.276;2024-01-30T06:00:00;18.1;;;10.4;;
67344;SDS011;54230;52.402;6.276;2024-01-30T06:05:00;18.7;;;10.8;;
67344;SDS011;54230;52.402;6.276;2024-01-30T06:10:00;19.3;;;10.4;;
67344;SDS011;54230;52.402;6.276;2024-01-30T06:15:00;20.3;;;10.5;;
67344;SDS011;54230;52.402;6.276;2024-01-30T06:20:00;17.7;;;9.9;;
67344;SDS011;54230;52.402;6.276;2024-01-30T06:25:00;17.8;;;10.0;;
67344;SDS011;54230;52.402;6.276;2024-01-30T06:30:00;20.7;;;10.4;;
67344;SDS011;54230;52.402;6.276;2024-01-30T06:35:00;17.5;;;9.9;;
67344;SDS011;54230;52.402;6.276;2024-01-30T06:40:00;18.5;;;9.5;;
67344;SDS011;54230;52.402;6.276;2024-01-30T06:45:00;18.0;;;9.8;;
67344;SDS011;54230;52.402;6.276;2024-01-30T06:50:00;17.2;;;9.9;;
67344;SDS011;54230;52.402;6.276;2024-01-30T06:55:00;18.4;;;10.3;;
67344;SDS011;54230;52.402;6.276;2024-01-30T07:00:00;16.6;;;9.2;;
67344;SDS011;54230;52.402;6.276;2024-01-30T07:05:00;17.7;;;9.7;;
67344;SDS011;54230;52.402;6.276;2024-01-30T07:10:00;16.8;;;9.6;;
67344;SDS011;54230;52.402;6.276;2024-01-30T07:15:00;16.6;;;9.3;;
67344;SDS011;54230;52.402;6.276;2024-01-30T07:20:00;14.8;;;8.7;;
67344;SDS011;54230;52.402;6.276;2024-01-30T07:25:00;16.3;;;9.8;;
67344;SDS011;54230;52.402;6.276;2024-01-30T07:30:00;16.7;;;9.0;;
67344;SDS011;54230;52.402;6.276;2024-01-30T07:35:00;18.6;;;9.3;;
67344;SDS011;54230;52.402;6.276;2024-01-30T07:40:00;20.3;;;9.7;;
67344;SDS011;54230;52.402;6.276;2024-01-30T07:45:00;15.9;;;8.5;;
67344;SDS011;54230;52.402;6.276;2024-01-30T07:50:00;13.9;;;8.1;;
67344;SDS011;54230;52.402;6.276;2024-01-30T07:55:00;16.0;;;8.9;;
67344;SDS011;54230;52.402;6.276;2024-01-30T08:00:00;16.3;;;8.3;;
67344;SDS011;54230;52.402;6.276;2024-01-30T08:05:00;15.4;;;8.7;;
67344;SDS011;54230;52.402;6.276;2024-01-30T08:10:00;16.2;;;8.3;;
67344;SDS011;54230;52.402;6.276;2024-01-30T08:15:00;16.4;;;8.4;;
67344;SDS011;54230;52.402;6.276;2024-01-30T08:20:00;16.3;;;8.4;;
67344;SDS011;54230;52.402;6.276;2024-01-30T08:25:00;14.7;;;8.2;;
67344;SDS011;54230;52.402;6.276;2024-01-30T08:30:00;13.6;;;8.4;;
67344;SDS011;54230;52.402;6.276;2024-01-30T08:35:00;14.6;;;8.1;;
67344;SDS011;54230;52.402;6.276;2024-01-30T08:40:00;13.9;;;8.2;;
67344;SDS011;54230;52.402;6.276;2024-01-30T08:45:00;13.8;;;7.8;;
67344;SDS011;54230;52.402;6.276;2024-01-30T08:50:00;14.5;;;8.7;;
67344;SDS011;54230;52.402;6.276;2024-01-30T08:55:00;14.8;;;8.8;;
67344;SDS011;54230;52.402;6.276;2024-01-30T09:00:00;14.4;;;8.5;;
67344;SDS011;54230;52.402;6.276;2024-01-30T09:05:00;15.0;;;8.0;;
67344;SDS011;54230;52.402;6.276;2024-01-30T09:10:00;14.9;;;7.8;;
67344;SDS011;54230;52.402;6.276;2024-01-30T09:15:00;13.9;;;8.1;;
67344;SDS011;54230;52.402;6.276;2024-01-30T09:20:00;15.0;;;8.6;;
67344;SDS011;54230;52.402;6.276;2024-01-30T09:25:00;13.5;;;8.0;;
67344;SDS011;54230;52.402;6.276;2024-01-30T09:30:00;15.8;;;8.8;;
67344;SDS011;54230;52.402;6.276;2024-01-30T09:35:00;15.4;;;7.7;;
67344;SDS011;54230;52.402;6.276;2024-01-30T09:40:00;15.0;;;8.2;;
67344;SDS011;54230;52.402;6.276;2024-01-30T09:45:00;17.0;;;8.5;;
67344;SDS011;54230;52.402;6.276;2024-01-30T09:50:00;15.8;;;8.0;;
67344;SDS011;54230;52.402;6.276;2024-01-30T09:55:00;19.2;;;8.1;;
67344;SDS011;54230;52.402;6.276;2024-01-30T10:00:00;15.8;;;8.5;;
67344;SDS011;54230;52.402;6.276;2024-01-30T10:05:00;13.9;;;7.9;;
67344;SDS011;54230;52.402;6.276;2024-01-30T10:10:00;14.9;;;7.9;;
67344;SDS011;54230;52.402;6.276;2024-01-30T10:15:00;17.8;;;8.4;;
67344;SDS011;54230;52.402;6.276;2024-01-30T10:20:00;16.5;;;8.9;;
67344;SDS011;54230;52.402;6.276;2024-01-30T10:25:00;14.7;;;8.2;;
67344;SDS011;54230;52.402;6.276;2024-01-30T10:30:00;16.4;;;8.3;;
67344;SDS011;54230;52.402;6.276;2024-01-30T10:35:00;17.5;;;8.3;;
67344;SDS011;54230;52.402;6.276;2024-01-30T10:40:01;14.9;;;8.1;;
67344;SDS011;54230;52.402;6.276;2024-01-30T10:45:02;14.7;;;7.8;;
67344;SDS011;54230;52.402;6.276;2024-01-30T10:50:00;15.1;;;8.1;;
67344;SDS011;54230;52.402;6.276;2024-01-30T10:55:00;16.0;;;7.9;;
67344;SDS011;54230;52.402;6.276;2024-01-30T11:00:00;21.1;;;8.5;;
67344;SDS011;54230;52.402;6.276;2024-01-30T11:05:00;16.1;;;7.9;;
67344;SDS011;54230;52.402;6.276;2024-01-30T11:10:00;14.7;;;7.5;;
67344;SDS011;54230;52.402;6.276;2024-01-30T11:15:01;13.9;;;7.0;;
67344;SDS011;54230;52.402;6.276;2024-01-30T11:20:00;17.4;;;7.8;;
67344;SDS011;54230;52.402;6.276;2024-01-30T11:25:00;15.1;;;7.8;;
67344;SDS011;54230;52.402;6.276;2024-01-30T11:30:01;16.3;;;7.4;;
67344;SDS011;54230;52.402;6.276;2024-01-30T11:35:00;15.8;;;7.5;;
67344;SDS011;54230;52.402;6.276;2024-01-30T11:40:00;14.8;;;7.2;;
67344;SDS011;54230;52.402;6.276;2024-01-30T11:45:00;13.8;;;7.2;;
67344;SDS011;54230;52.402;6.276;2024-01-30T11:50:00;12.4;;;6.2;;
67344;SDS011;54230;52.402;6.276;2024-01-30T11:55:00;14.0;;;6.7;;
67344;SDS011;54230;52.402;6.276;2024-01-30T12:00:00;14.0;;;7.1;;
67344;SDS011;54230;52.402;6.276;2024-01-30T12:05:02;14.7;;;6.5;;
67344;SDS011;54230;52.402;6.276;2024-01-30T12:10:00;11.1;;;6.2;;
67344;SDS011;54230;52.402;6.276;2024-01-30T12:15:00;10.7;;;5.9;;
67344;SDS011;54230;52.402;6.276;2024-01-30T12:20:03;14.0;;;6.6;;
67344;SDS011;54230;52.402;6.276;2024-01-30T12:25:00;11.7;;;6.6;;
67344;SDS011;54230;52.402;6.276;2024-01-30T12:30:00;13.4;;;6.4;;
67344;SDS011;54230;52.402;6.276;2024-01-30T12:35:00;11.6;;;5.8;;
67344;SDS011;54230;52.402;6.276;2024-01-30T12:40:00;11.1;;;5.7;;
67344;SDS011;54230;52.402;6.276;2024-01-30T12:45:00;13.1;;;5.8;;
67344;SDS011;54230;52.402;6.276;2024-01-30T12:50:00;11.9;;;6.2;;
67344;SDS011;54230;52.402;6.276;2024-01-30T12:55:00;11.3;;;5.7;;
67344;SDS011;54230;52.402;6.276;2024-01-30T13:00:00;7.6;;;3.7;;
67344;SDS011;54230;52.402;6.276;2024-01-30T13:05:00;8.4;;;3.5;;
67344;SDS011;54230;52.402;6.276;2024-01-30T13:10:00;6.6;;;2.9;;
67344;SDS011;54230;52.402;6.276;2024-01-30T13:15:00;7.7;;;2.6;;
67344;SDS011;54230;52.402;6.276;2024-01-30T13:20:00;6.3;;;2.3;;
67344;SDS011;54230;52.402;6.276;2024-01-30T13:25:00;5.5;;;2.1;;
67344;SDS011;54230;52.402;6.276;2024-01-30T13:30:00;5.1;;;2.3;;
67344;SDS011;54230;52.402;6.276;2024-01-30T13:35:00;7.0;;;2.2;;
67344;SDS011;54230;52.402;6.276;2024-01-30T13:40:00;6.3;;;2.3;;
67344;SDS011;54230;52.402;6.276;2024-01-30T13:45:00;7.4;;;2.9;;
67344;SDS011;54230;52.402;6.276;2024-01-30T13:50:00;7.0;;;3.2;;
67344;SDS011;54230;52.402;6.276;2024-01-30T13:55:00;5.6;;;3.1;;
67344;SDS011;54230;52.402;6.276;2024-01-30T14:00:00;5.5;;;2.5;;
67344;SDS011;54230;52.402;6.276;2024-01-30T14:05:00;4.1;;;2.5;;
67344;SDS011;54230;52.402;6.276;2024-01-30T14:10:00;5.2;;;2.4;;
67344;SDS011;54230;52.402;6.276;2024-01-30T14:15:00;6.1;;;2.7;;
67344;SDS011;54230;52.402;6.276;2024-01-30T14:20:00;6.0;;;2.8;;
67344;SDS011;54230;52.402;6.276;2024-01-30T14:25:00;8.7;;;3.2;;
67344;SDS011;54230;52.402;6.276;2024-01-30T14:30:00;4.8;;;2.5;;
67344;SDS011;54230;52.402;6.276;2024-01-30T14:35:00;6.0;;;2.7;;
67344;SDS011;54230;52.402;6.276;2024-01-30T14:40:00;5.1;;;2.6;;
67344;SDS011;54230;52.402;6.276;2024-01-30T14:45:00;4.5;;;2.4;;
67344;SDS011;54230;52.402;6.276;2024-01-30T14:50:00;4.8;;;2.4;;
67344;SDS011;54230;52.402;6.276;2024-01-30T14:55:00;6.6;;;2.7;;
67344;SDS011;54230;52.402;6.276;2024-01-30T15:00:00;5.7;;;2.8;;
67344;SDS011;54230;52.402;6.276;2024-01-30T15:05:00;7.4;;;3.1;;
67344;SDS011;54230;52.402;6.276;2024-01-30T15:10:00;7.6;;;3.3;;
67344;SDS011;54230;52.402;6.276;2024-01-30T15:15:00;7.1;;;3.1;;
67344;SDS011;54230;52.402;6.276;2024-01-30T15:20:00;6.7;;;3.0;;
67344;SDS011;54230;52.402;6.276;2024-01-30T15:25:00;6.1;;;2.6;;
67344;SDS011;54230;52.402;6.276;2024-01-30T15:30:00;5.9;;;2.6;;
67344;SDS011;54230;52.402;6.276;2024-01-30T15:35:00;6.4;;;2.7;;
67344;SDS011;54230;52.402;6.276;2024-01-30T15:40:00;6.9;;;3.1;;
67344;SDS011;54230;52.402;6.276;2024-01-30T15:45:00;6.5;;;2.4;;
67344;SDS011;54230;52.402;6.276;2024-01-30T15:50:00;5.9;;;2.7;;
67344;SDS011;54230;52.402;6.276;2024-01-30T15:55:00;6.5;;;3.1;;
67344;SDS011;54230;52.402;6.276;2024-01-30T16:00:00;6.9;;;3.1;;
67344;SDS011;54230;52.402;6.276;2024-01-30T16:05:00;6.2;;;2.8;;
67344;SDS011;54230;52.402;6.276;2024-01-30T16:10:00;5.4;;;2.6;;
67344;SDS011;54230;52.402;6.276;2024-01-30T16:15:00;5.2;;;2.7;;
67344;SDS011;54230;52.402;6.276;2024-01-30T16:20:00;5.8;;;2.7;;
67344;SDS011;54230;52.402;6.276;2024-01-30T16:25:00;7.9;;;3.5;;
67344;SDS011;54230;52.402;6.276;2024-01-30T16:30:00;7.0;;;3.1;;
67344;SDS011;54230;52.402;6.276;2024-01-30T16:35:00;7.9;;;3.7;;
67344;SDS011;54230;52.402;6.276;2024-01-30T16:40:00;8.6;;;4.3;;
67344;SDS011;54230;52.402;6.276;2024-01-30T16:45:00;7.8;;;4.6;;
67344;SDS011;54230;52.402;6.276;2024-01-30T16:50:00;10.6;;;5.1;;
67344;SDS011;54230;52.402;6.276;2024-01-30T16:55:00;10.4;;;5.3;;
67344;SDS011;54230;52.402;6.276;2024-01-30T17:00:00;9.2;;;5.0;;
67344;SDS011;54230;52.402;6.276;2024-01-30T17:05:00;10.3;;;5.2;;
67344;SDS011;54230;52.402;6.276;2024-01-30T17:10:00;10.9;;;5.8;;
67344;SDS011;54230;52.402;6.276;2024-01-30T17:15:00;10.0;;;5.7;;
67344;SDS011;54230;52.402;6.276;2024-01-30T17:20:00;10.5;;;5.5;;
67344;SDS011;54230;52.402;6.276;2024-01-30T17:25:00;10.9;;;6.0;;
67344;SDS011;54230;52.402;6.276;2024-01-30T17:30:00;12.7;;;6.3;;
67344;SDS011;54230;52.402;6.276;2024-01-30T17:35:00;10.8;;;6.1;;
67344;SDS011;54230;52.402;6.276;2024-01-30T17:40:00;9.6;;;5.3;;
67344;SDS011;54230;52.402;6.276;2024-01-30T17:45:00;9.4;;;4.8;;
67344;SDS011;54230;52.402;6.276;2024-01-30T17:50:00;8.3;;;4.3;;
67344;SDS011;54230;52.402;6.276;2024-01-30T17:55:00;7.5;;;4.2;;
67344;SDS011;54230;52.402;6.276;2024-01-30T18:00:00;7.4;;;4.3;;
67344;SDS011;54230;52.402;6.276;2024-01-30T18:05:00;8.0;;;4.2;;
67344;SDS011;54230;52.402;6.276;2024-01-30T18:10:00;7.5;;;3.8;;
67344;SDS011;54230;52.402;6.276;2024-01-30T18:15:00;6.7;;;3.4;;
67344;SDS011;54230;52.402;6.276;2024-01-30T18:20:00;6.0;;;3.2;;
67344;SDS011;54230;52.402;6.276;2024-01-30T18:25:00;8.8;;;3.2;;
67344;SDS011;54230;52.402;6.276;2024-01-30T18:30:00;8.2;;;3.4;;
67344;SDS011;54230;52.402;6.276;2024-01-30T18:35:00;8.0;;;3.2;;
67344;SDS011;54230;52.402;6.276;2024-01-30T18:40:00;8.6;;;3.4;;
67344;SDS011;54230;52.402;6.276;2024-01-30T18:45:00;10.8;;;3.2;;
67344;SDS011;54230;52.402;6.276;2024-01-30T18:50:00;10.8;;;2.5;;
67344;SDS011;54230;52.402;6.276;2024-01-30T18:55:00;11.2;;;2.5;;
67344;SDS011;54230;52.402;6.276;2024-01-30T19:00:00;10.6;;;2.6;;
67344;SDS011;54230;52.402;6.276;2024-01-30T19:05:00;9.0;;;2.3;;
67344;SDS011;54230;52.402;6.276;2024-01-30T19:10:00;9.9;;;2.4;;
67344;SDS011;54230;52.402;6.276;2024-01-30T19:15:00;12.2;;;2.6;;
67344;SDS011;54230;52.402;6.276;2024-01-30T19:20:00;11.8;;;2.6;;
67344;SDS011;54230;52.402;6.276;2024-01-30T19:25:00;12.3;;;2.6;;
67344;SDS011;54230;52.402;6.276;2024-01-30T19:30:00;12.2;;;2.7;;
67344;SDS011;54230;52.402;6.276;2024-01-30T19:35:00;10.7;;;2.5;;
67344;SDS011;54230;52.402;6.276;2024-01-30T19:40:00;11.0;;;2.5;;
67344;SDS011;54230;52.402;6.276;2024-01-30T19:45:00;9.9;;;2.5;;
67344;SDS011;54230;52.402;6.276;2024-01-30T19:50:00;9.4;;;2.1;;
67344;SDS011;54230;52.402;6.276;2024-01-30T19:55:00;12.8;;;2.3;;
67344;SDS011;54230;52.402;6.276;2024-01-30T20:00:00;12.5;;;2.3;;
67344;SDS011;54230;52.402;6.276;2024-01-30T20:05:00;13.5;;;2.4;;
67344;SDS011;54230;52.402;6.276;2024-01-30T20:10:00;11.5;;;2.2;;
67344;SDS011;54230;52.402;6.276;2024-01-30T20:15:00;14.5;;;2.8;;
67344;SDS011;54230;52.402;6.276;2024-01-30T20:20:00;15.4;;;2.6;;
67344;SDS011;54230;52.402;6.276;2024-01-30T20:25:00;13.7;;;2.8;;
67344;SDS011;54230;52.402;6.276;2024-01-30T20:30:00;14.8;;;2.5;;
67344;SDS011;54230;52.402;6.276;2024-01-30T20:35:00;14.2;;;2.5;;
67344;SDS011;54230;52.402;6.276;2024-01-30T20:40:00;18.3;;;3.3;;
67344;SDS011;54230;52.402;6.276;2024-01-30T20:45:01;14.0;;;2.7;;
67344;SDS011;54230;52.402;6.276;2024-01-30T20:50:00;13.6;;;2.8;;
67344;SDS011;54230;52.402;6.276;2024-01-30T20:55:00;9.6;;;1.8;;
67344;SDS011;54230;52.402;6.276;2024-01-30T21:00:00;8.6;;;1.5;;
67344;SDS011;54230;52.402;6.276;2024-01-30T21:05:00;7.0;;;1.4;;
67344;SDS011;54230;52.402;6.276;2024-01-30T21:10:00;10.5;;;1.5;;
67344;SDS011;54230;52.402;6.276;2024-01-30T21:15:00;9.8;;;1.8;;
67344;SDS011;54230;52.402;6.276;2024-01-30T21:20:00;11.6;;;1.9;;
67344;SDS011;54230;52.402;6.276;2024-01-30T21:25:01;8.0;;;1.5;;
67344;SDS011;54230;52.402;6.276;2024-01-30T21:30:00;7.8;;;1.6;;
67344;SDS011;54230;52.402;6.276;2024-01-30T21:35:00;6.9;;;1.4;;
67344;SDS011;54230;52.402;6.276;2024-01-30T21:40:00;8.1;;;1.6;;
67344;SDS011;54230;52.402;6.276;2024-01-30T21:45:00;11.5;;;1.8;;
67344;SDS011;54230;52.402;6.276;2024-01-30T21:50:00;7.7;;;1.6;;
67344;SDS011;54230;52.402;6.276;2024-01-30T21:55:00;7.2;;;1.8;;
67344;SDS011;54230;52.402;6.276;2024-01-30T22:00:00;5.3;;;1.1;;
67344;SDS011;54230;52.402;6.276;2024-01-30T22:05:00;7.8;;;1.5;;
67344;SDS011;54230;52.402;6.276;2024-01-30T22:10:00;5.9;;;1.5;;
67344;SDS011;54230;52.402;6.276;2024-01-30T22:15:00;8.2;;;1.6;;
67344;SDS011;54230;52.402;6.276;2024-01-30T22:20:00;6.6;;;1.3;;
67344;SDS011;54230;52.402;6.276;2024-01-30T22:25:00;8.0;;;1.4;;
67344;SDS011;54230;52.402;6.276;2024-01-30T22:30:00;9.3;;;1.6;;
67344;SDS011;54230;52.402;6.276;2024-01-30T22:35:00;8.3;;;1.5;;
67344;SDS011;54230;52.402;6.276;2024-01-30T22:40:00;7.8;;;1.7;;
67344;SDS011;54230;52.402;6.276;2024-01-30T22:45:00;7.7;;;1.8;;
67344;SDS011;54230;52.402;6.276;2024-01-30T22:50:00;4.8;;;1.4;;
67344;SDS011;54230;52.402;6.276;2024-01-30T22:55:00;9.0;;;1.6;;
67344;SDS011;54230;52.402;6.276;2024-01-30T23:00:00;7.2;;;1.5;;
67344;SDS011;54230;52.402;6.276;2024-01-30T23:05:00;8.0;;;1.5;;
67344;SDS011;54230;52.402;6.276;2024-01-30T23:10:00;6.1;;;1.7;;
67344;SDS011;54230;52.402;6.276;2024-01-30T23:15:00;8.6;;;1.5;;
67344;SDS011;54230;52.402;6.276;2024-01-30T23:20:00;5.1;;;1.5;;
67344;SDS011;54230;52.402;6.276;2024-01-30T23:25:00;10.3;;;1.9;;
67344;SDS011;54230;52.402;6.276;2024-01-30T23:30:01;7.8;;;1.7;;
67344;SDS011;54230;52.402;6.276;2024-01-30T23:35:00;7.9;;;1.7;;
67344;SDS011;54230;52.402;6.276;2024-01-30T23:40:00;5.8;;;1.7;;
67344;SDS011;54230;52.402;6.276;2024-01-30T23:45:00;4.7;;;1.3;;
67344;SDS011;54230;52.402;6.276;2024-01-30T23:50:00;5.2;;;1.8;;
67344;SDS011;54230;52.402;6.276;2024-01-30T23:55:00;6.3;;;1.5;;
